Time;durP1;ratioP1;P1;durP2;ratioP2;P2;SDS_P1;SDS_P2;PMS_P1;PMS_P2;Temp;Humidity;BMP_temperature;BMP_pressure;BME280_temperature;BME280_humidity;BME280_pressure;Samples;Min_cycle;Max_cycle;Signal;HPM_P1;HPM_P2
2022/07/13 00:00:09;;;;;;;1.50;1.08;;;21.80;57.10;;;;;;6177476;28;20027;-67
2022/07/13 00:03:10;;;;;;;1.20;1.10;;;21.80;57.10;;;;;;6176490;28;20066;-67
2022/07/13 00:06:10;;;;;;;1.60;1.30;;;21.80;57.10;;;;;;6172749;28;20034;-68
2022/07/13 00:09:11;;;;;;;1.52;1.42;;;21.80;57.10;;;;;;6173188;28;20031;-67
2022/07/13 00:12:12;;;;;;;1.30;1.20;;;21.80;57.10;;;;;;6173806;28;20059;-68
2022/07/13 00:15:12;;;;;;;1.33;1.20;;;21.80;57.10;;;;;;6173271;28;20100;-68
2022/07/13 00:18:13;;;;;;;1.45;1.30;;;21.80;57.10;;;;;;6173445;28;20034;-67
2022/07/13 00:21:14;;;;;;;1.20;1.10;;;21.80;57.10;;;;;;6173114;28;20027;-67
2022/07/13 00:24:15;;;;;;;1.30;1.20;;;21.80;57.10;;;;;;6173227;28;20027;-67
2022/07/13 00:27:15;;;;;;;1.35;1.25;;;21.80;57.10;;;;;;6172930;28;20054;-68
2022/07/13 00:30:16;;;;;;;1.52;1.17;;;21.80;57.20;;;;;;6172564;28;20440;-67
2022/07/13 00:33:17;;;;;;;1.20;1.05;;;21.80;57.20;;;;;;6173188;28;20034;-67
2022/07/13 00:36:17;;;;;;;1.73;1.17;;;21.80;57.10;;;;;;6172880;28;20027;-68
2022/07/13 00:39:18;;;;;;;1.35;1.10;;;21.80;57.10;;;;;;6172868;28;20065;-67
2022/07/13 00:42:18;;;;;;;1.20;1.10;;;21.80;57.10;;;;;;6172676;28;20031;-68
2022/07/13 00:45:19;;;;;;;1.63;1.00;;;21.80;57.20;;;;;;6172664;28;20030;-67
2022/07/13 00:48:20;;;;;;;1.30;1.20;;;21.80;57.20;;;;;;6172445;28;20469;-67
2022/07/13 00:51:20;;;;;;;1.40;1.20;;;21.80;57.10;;;;;;6172505;28;20023;-67
2022/07/13 00:54:29;;;;;;;1.30;1.20;;;21.80;57.10;;;;;;6172599;28;20455;-68
2022/07/13 00:57:34;;;;;;;1.50;1.35;;;21.80;57.10;;;;;;6172562;28;20026;-67
2022/07/13 01:00:36;;;;;;;1.20;1.10;;;21.80;57.10;;;;;;6172464;28;20486;-68
2022/07/13 01:03:37;;;;;;;1.25;1.05;;;21.80;57.20;;;;;;6172394;28;20041;-67
2022/07/13 01:06:37;;;;;;;1.75;1.33;;;21.80;57.10;;;;;;6172743;28;20470;-67
2022/07/13 01:09:38;;;;;;;1.27;1.17;;;21.80;57.10;;;;;;6172849;28;20038;-67
2022/07/13 01:12:40;;;;;;;1.15;1.05;;;21.80;57.20;;;;;;6172646;28;20545;-68
2022/07/13 01:15:40;;;;;;;1.33;1.10;;;21.80;57.80;;;;;;6171829;28;20027;-67
2022/07/13 01:18:41;;;;;;;1.40;1.30;;;21.80;57.20;;;;;;6172126;28;20089;-68
2022/07/13 01:21:45;;;;;;;1.40;1.30;;;21.80;57.20;;;;;;6171875;28;20041;-67
2022/07/13 01:24:46;;;;;;;1.25;1.13;;;21.80;57.20;;;;;;6171649;28;20509;-68
2022/07/13 01:27:48;;;;;;;1.08;0.90;;;21.80;57.10;;;;;;6172002;28;20115;-68
2022/07/13 01:30:49;;;;;;;0.90;0.80;;;21.80;57.20;;;;;;6171955;28;20027;-67
2022/07/13 01:33:50;;;;;;;1.20;1.10;;;21.80;57.20;;;;;;6171470;28;20437;-67
2022/07/13 01:36:51;;;;;;;1.15;1.00;;;21.80;57.20;;;;;;6171817;28;20031;-67
2022/07/13 01:39:52;;;;;;;1.15;1.05;;;21.80;57.10;;;;;;6171479;28;20062;-68
2022/07/13 01:42:52;;;;;;;1.20;1.10;;;21.80;57.20;;;;;;6170231;28;20042;-67
2022/07/13 01:45:53;;;;;;;1.52;1.08;;;21.80;57.10;;;;;;6171722;28;20153;-67
2022/07/13 01:48:54;;;;;;;1.77;1.13;;;21.80;57.20;;;;;;6170867;28;20055;-67
2022/07/13 01:51:55;;;;;;;1.23;1.13;;;21.80;57.10;;;;;;6171567;28;20524;-67
2022/07/13 01:54:55;;;;;;;1.73;1.33;;;21.80;57.20;;;;;;6170688;28;20023;-67
2022/07/13 01:57:59;;;;;;;1.58;1.30;;;21.80;57.20;;;;;;6171554;28;20101;-67
2022/07/13 02:01:00;;;;;;;1.63;1.35;;;21.80;57.20;;;;;;6170886;28;20034;-66
2022/07/13 02:04:01;;;;;;;1.10;1.00;;;21.80;57.20;;;;;;6171101;28;20023;-66
2022/07/13 02:07:01;;;;;;;1.15;1.02;;;21.80;57.20;;;;;;6170734;28;20430;-67
2022/07/13 02:10:04;;;;;;;1.45;1.23;;;21.80;57.20;;;;;;6170763;28;20065;-68
2022/07/13 02:13:06;;;;;;;1.40;1.30;;;21.80;57.20;;;;;;6170683;28;20696;-67
2022/07/13 02:16:07;;;;;;;1.52;1.20;;;21.80;57.20;;;;;;6170980;28;20081;-67
2022/07/13 02:19:08;;;;;;;1.05;0.95;;;21.80;57.20;;;;;;6171125;28;20576;-67
2022/07/13 02:22:08;;;;;;;1.10;1.00;;;21.90;57.20;;;;;;6170433;28;20076;-67
2022/07/13 02:25:09;;;;;;;1.35;1.10;;;21.80;57.20;;;;;;6170497;28;20041;-68
2022/07/13 02:28:10;;;;;;;1.30;1.00;;;21.80;57.20;;;;;;6169922;28;20042;-68
2022/07/13 02:31:10;;;;;;;1.77;1.58;;;21.80;57.20;;;;;;6169938;28;20030;-67
2022/07/13 02:34:11;;;;;;;1.10;1.00;;;21.80;57.20;;;;;;6170538;28;20031;-67
2022/07/13 02:37:12;;;;;;;1.38;1.27;;;21.80;57.20;;;;;;6170688;28;20125;-67
2022/07/13 02:40:12;;;;;;;1.60;1.30;;;21.80;57.20;;;;;;6170530;28;20027;-68
2022/07/13 02:43:13;;;;;;;1.20;1.10;;;21.80;57.20;;;;;;6170287;28;20421;-67
2022/07/13 02:46:14;;;;;;;1.40;1.30;;;21.80;57.20;;;;;;6170169;28;20042;-67
2022/07/13 02:49:14;;;;;;;1.30;1.20;;;21.80;57.20;;;;;;6170313;28;20209;-67
2022/07/13 02:52:15;;;;;;;1.13;1.02;;;21.80;57.30;;;;;;6170145;28;20425;-68
2022/07/13 02:55:16;;;;;;;1.40;1.30;;;21.80;57.20;;;;;;6169763;28;20037;-67
2022/07/13 02:58:17;;;;;;;1.23;1.13;;;21.80;57.20;;;;;;6170334;28;20031;-67
2022/07/13 03:01:17;;;;;;;1.58;1.30;;;21.80;57.20;;;;;;6170126;28;20023;-67
2022/07/13 03:04:18;;;;;;;1.30;1.02;;;21.80;57.20;;;;;;6170068;28;20540;-68
2022/07/13 03:07:19;;;;;;;1.20;1.00;;;21.80;57.20;;;;;;6169920;28;20122;-67
2022/07/13 03:10:19;;;;;;;1.02;0.93;;;21.80;57.20;;;;;;6169875;28;20046;-67
2022/07/13 03:13:20;;;;;;;1.45;1.17;;;21.80;57.20;;;;;;6170709;28;20524;-67
2022/07/13 03:16:21;;;;;;;1.38;1.27;;;21.80;57.20;;;;;;6169606;28;20037;-66
2022/07/13 03:19:22;;;;;;;1.33;1.23;;;21.80;57.20;;;;;;6170011;28;20038;-67
2022/07/13 03:22:22;;;;;;;1.10;1.00;;;21.80;57.20;;;;;;6169087;28;20042;-67
2022/07/13 03:25:23;;;;;;;1.00;0.90;;;21.80;57.20;;;;;;6169512;28;20110;-68
2022/07/13 03:28:23;;;;;;;1.35;1.20;;;21.80;57.20;;;;;;6169388;28;20037;-68
2022/07/13 03:31:26;;;;;;;1.55;1.10;;;21.80;57.20;;;;;;6169406;28;20031;-68
2022/07/13 03:34:26;;;;;;;1.30;1.10;;;21.80;57.20;;;;;;6169838;28;20377;-67
2022/07/13 03:37:27;;;;;;;1.73;1.30;;;21.80;57.20;;;;;;6169639;28;20031;-67
2022/07/13 03:40:28;;;;;;;1.23;1.10;;;21.80;57.20;;;;;;6172660;28;20027;-66
2022/07/13 03:43:29;;;;;;;1.15;1.05;;;21.80;57.20;;;;;;6174344;28;20023;-67
2022/07/13 03:46:29;;;;;;;1.00;0.93;;;21.80;57.30;;;;;;6173992;28;20023;-68
2022/07/13 03:49:30;;;;;;;1.20;1.10;;;21.80;57.20;;;;;;6174156;28;20142;-67
2022/07/13 03:52:30;;;;;;;1.30;1.10;;;21.80;57.20;;;;;;6173597;28;20030;-67
2022/07/13 03:55:31;;;;;;;1.25;1.15;;;21.80;57.20;;;;;;6173696;28;20030;-67
2022/07/13 03:58:32;;;;;;;1.17;0.98;;;21.80;57.20;;;;;;6173508;28;20034;-67
2022/07/13 04:01:33;;;;;;;1.40;1.20;;;21.80;57.20;;;;;;6174462;28;20489;-67
2022/07/13 04:04:33;;;;;;;1.30;1.10;;;21.80;57.20;;;;;;6172816;28;20529;-68
2022/07/13 04:07:34;;;;;;;1.40;1.20;;;21.80;57.20;;;;;;6172195;28;20082;-67
2022/07/13 04:10:34;;;;;;;1.25;1.10;;;21.80;57.20;;;;;;6172896;28;20049;-68
2022/07/13 04:13:35;;;;;;;1.00;0.93;;;21.80;57.20;;;;;;6173269;28;20544;-67
2022/07/13 04:16:36;;;;;;;1.30;1.13;;;21.80;57.30;;;;;;6172016;28;20034;-68
2022/07/13 04:19:36;;;;;;;1.20;1.10;;;21.80;57.30;;;;;;6173358;28;20081;-68
2022/07/13 04:22:37;;;;;;;1.30;1.20;;;21.80;57.30;;;;;;6172605;28;20061;-67
2022/07/13 04:25:38;;;;;;;1.30;1.20;;;21.80;57.30;;;;;;6172142;28;20212;-67
2022/07/13 04:28:38;;;;;;;1.20;1.10;;;21.80;57.30;;;;;;6172166;28;20027;-67
2022/07/13 04:31:39;;;;;;;1.42;1.20;;;21.80;57.20;;;;;;6172243;28;20059;-67
2022/07/13 04:34:40;;;;;;;1.40;1.15;;;21.80;57.20;;;;;;6167638;28;20037;-68
2022/07/13 04:37:41;;;;;;;1.20;1.10;;;21.80;57.20;;;;;;6171898;28;20475;-68
2022/07/13 04:40:41;;;;;;;1.20;1.10;;;21.80;57.30;;;;;;6172195;28;20041;-67
2022/07/13 04:43:45;;;;;;;1.10;0.90;;;21.80;57.20;;;;;;6172005;28;20062;-68
2022/07/13 04:46:46;;;;;;;1.27;1.17;;;21.80;57.20;;;;;;6171758;28;20080;-67
2022/07/13 04:49:47;;;;;;;1.20;1.02;;;21.80;57.20;;;;;;6171030;28;20065;-67
2022/07/13 04:52:47;;;;;;;1.20;1.10;;;21.80;57.30;;;;;;6171955;28;20026;-68
2022/07/13 04:55:48;;;;;;;1.17;1.00;;;21.80;57.20;;;;;;6171977;28;20134;-67
2022/07/13 04:58:49;;;;;;;1.15;1.00;;;21.80;57.30;;;;;;6172158;28;20023;-68
2022/07/13 05:01:49;;;;;;;1.20;1.10;;;21.80;57.20;;;;;;6172488;28;20027;-68
2022/07/13 05:04:50;;;;;;;0.95;0.95;;;21.80;57.20;;;;;;6171977;28;20023;-67
2022/07/13 05:07:51;;;;;;;1.10;1.00;;;21.80;57.30;;;;;;6172240;28;20070;-68
2022/07/13 05:10:53;;;;;;;1.13;1.02;;;21.80;57.30;;;;;;6172358;28;20030;-67
2022/07/13 05:13:53;;;;;;;1.05;0.95;;;21.80;57.20;;;;;;6171905;28;20023;-67
2022/07/13 05:16:54;;;;;;;0.93;0.88;;;21.80;57.30;;;;;;6172080;28;20089;-67
2022/07/13 05:19:54;;;;;;;0.80;0.80;;;21.80;57.30;;;;;;6172092;28;20367;-67
2022/07/13 05:22:55;;;;;;;1.00;0.90;;;21.80;57.30;;;;;;6171761;28;20027;-67
2022/07/13 05:25:56;;;;;;;1.10;1.00;;;21.80;57.30;;;;;;6171381;28;20030;-67
2022/07/13 05:28:56;;;;;;;1.17;1.08;;;21.80;57.30;;;;;;6171984;28;20035;-68
2022/07/13 05:31:57;;;;;;;1.20;1.10;;;21.80;57.30;;;;;;6171301;28;20023;-67
2022/07/13 05:34:57;;;;;;;1.30;1.00;;;21.80;57.30;;;;;;6171276;28;20026;-67
2022/07/13 05:37:58;;;;;;;1.10;1.00;;;21.80;57.30;;;;;;6170980;28;20054;-68
2022/07/13 05:40:59;;;;;;;1.08;0.98;;;21.80;57.30;;;;;;6171546;28;20058;-67
2022/07/13 05:44:02;;;;;;;1.20;1.10;;;21.80;57.30;;;;;;6171436;28;20556;-68
2022/07/13 05:47:03;;;;;;;0.98;0.90;;;21.80;57.30;;;;;;6171864;28;20043;-67
2022/07/13 05:50:04;;;;;;;1.10;1.00;;;21.80;57.30;;;;;;6170954;28;20059;-67
2022/07/13 05:53:05;;;;;;;1.00;0.90;;;21.80;57.30;;;;;;6171188;28;20058;-67
2022/07/13 05:56:05;;;;;;;1.23;1.10;;;21.80;57.30;;;;;;6171125;28;20022;-67
2022/07/13 05:59:06;;;;;;;0.90;0.90;;;21.80;57.20;;;;;;6170591;28;20078;-68
2022/07/13 06:02:07;;;;;;;1.13;0.98;;;21.90;58.00;;;;;;6172224;28;20109;-67
2022/07/13 06:05:08;;;;;;;1.10;1.00;;;21.90;57.30;;;;;;6173106;28;20030;-67
2022/07/13 06:08:09;;;;;;;1.10;1.00;;;21.80;57.20;;;;;;6172828;28;20490;-68
2022/07/13 06:11:10;;;;;;;1.17;1.02;;;21.80;57.20;;;;;;6172829;28;20023;-67
2022/07/13 06:14:11;;;;;;;0.95;0.90;;;21.80;57.20;;;;;;6172587;28;20478;-66
2022/07/13 06:17:11;;;;;;;1.30;1.20;;;21.80;57.20;;;;;;6173107;28;20066;-68
2022/07/13 06:20:12;;;;;;;1.30;1.10;;;21.90;57.20;;;;;;6171199;28;20042;-67
2022/07/13 06:23:15;;;;;;;1.00;0.95;;;21.80;57.20;;;;;;6172830;28;20030;-68
2022/07/13 06:26:15;;;;;;;1.55;1.15;;;21.90;57.30;;;;;;6172125;28;20022;-67
2022/07/13 06:29:16;;;;;;;1.92;1.08;;;21.90;57.20;;;;;;6172572;28;20038;-67
2022/07/13 06:32:17;;;;;;;1.08;0.98;;;21.90;57.30;;;;;;6172241;28;20497;-66
2022/07/13 06:35:18;;;;;;;1.08;0.98;;;21.80;57.20;;;;;;6172574;28;20057;-67
2022/07/13 06:38:18;;;;;;;1.45;1.33;;;21.80;57.20;;;;;;6172126;28;20023;-67
2022/07/13 06:41:19;;;;;;;1.10;1.00;;;21.80;57.20;;;;;;6172312;28;20062;-66
2022/07/13 06:44:20;;;;;;;2.38;1.20;;;21.80;57.20;;;;;;6171935;28;20169;-66
2022/07/13 06:47:20;;;;;;;1.20;1.10;;;21.80;57.20;;;;;;6172322;28;20038;-67
2022/07/13 06:50:21;;;;;;;1.20;1.10;;;21.80;57.20;;;;;;6171673;28;20062;-67
2022/07/13 06:53:22;;;;;;;1.45;1.20;;;21.80;57.30;;;;;;6172212;28;20074;-68
2022/07/13 06:56:23;;;;;;;1.10;1.00;;;21.80;57.90;;;;;;6171994;28;20027;-68
2022/07/13 06:59:23;;;;;;;1.30;1.20;;;21.80;57.20;;;;;;6172318;28;20050;-67
2022/07/13 07:02:24;;;;;;;1.10;1.00;;;21.80;57.20;;;;;;6172324;28;20102;-67
2022/07/13 07:05:24;;;;;;;1.13;1.02;;;21.80;57.20;;;;;;6172146;28;20405;-68
2022/07/13 07:08:25;;;;;;;1.20;1.10;;;21.80;57.30;;;;;;6171872;28;20460;-68
2022/07/13 07:11:26;;;;;;;1.30;1.10;;;21.80;57.20;;;;;;6172075;28;20454;-67
2022/07/13 07:14:26;;;;;;;1.08;0.98;;;21.80;57.20;;;;;;6174945;28;20050;-67
2022/07/13 07:17:27;;;;;;;1.08;0.98;;;21.80;57.20;;;;;;6177179;28;20058;-67
2022/07/13 07:20:28;;;;;;;1.13;0.98;;;21.80;57.20;;;;;;6176454;28;20027;-67
2022/07/13 07:23:28;;;;;;;1.23;0.90;;;21.80;57.20;;;;;;6176995;28;20027;-66
2022/07/13 07:26:32;;;;;;;1.20;1.10;;;21.80;57.20;;;;;;6176319;28;20027;-67
2022/07/13 07:29:39;;;;;;;1.00;0.90;;;21.80;57.20;;;;;;6176615;28;20043;-67
2022/07/13 07:32:40;;;;;;;1.20;1.10;;;21.80;57.20;;;;;;6172309;28;20030;-68
2022/07/13 07:35:40;;;;;;;1.30;0.88;;;21.80;57.30;;;;;;6176151;28;20027;-67
2022/07/13 07:38:41;;;;;;;1.00;0.90;;;21.80;57.20;;;;;;6176871;28;20081;-67
2022/07/13 07:41:42;;;;;;;1.23;1.02;;;21.80;57.20;;;;;;6176100;28;20449;-68
2022/07/13 07:44:42;;;;;;;1.50;1.25;;;21.80;57.20;;;;;;6176386;28;20039;-68
2022/07/13 07:47:43;;;;;;;1.48;1.20;;;21.80;57.20;;;;;;6175987;28;20035;-67
2022/07/13 07:50:43;;;;;;;1.00;0.98;;;21.80;57.20;;;;;;6175873;28;20055;-67
2022/07/13 07:53:44;;;;;;;1.30;1.02;;;21.80;57.20;;;;;;6175793;28;20026;-67
2022/07/13 07:56:45;;;;;;;1.30;1.05;;;21.80;57.20;;;;;;6175862;28;20153;-68
2022/07/13 07:59:45;;;;;;;1.08;0.95;;;21.80;57.20;;;;;;6175397;28;20027;-67
2022/07/13 08:02:47;;;;;;;1.10;1.00;;;21.80;57.20;;;;;;6175731;28;20035;-67
2022/07/13 08:05:51;;;;;;;0.80;0.80;;;21.80;57.30;;;;;;6174979;28;20034;-67
2022/07/13 08:08:52;;;;;;;1.17;1.08;;;21.80;57.20;;;;;;6175493;28;20035;-67
2022/07/13 08:11:53;;;;;;;1.42;1.13;;;21.80;57.20;;;;;;6175149;28;20097;-68
2022/07/13 08:14:53;;;;;;;0.98;0.80;;;21.80;57.20;;;;;;6175538;28;20498;-67
2022/07/13 08:17:55;;;;;;;1.10;1.00;;;21.80;57.20;;;;;;6175262;28;20524;-67
2022/07/13 08:20:55;;;;;;;1.10;1.00;;;21.80;57.30;;;;;;6174744;28;20035;-68
2022/07/13 08:23:56;;;;;;;1.38;1.05;;;21.80;57.20;;;;;;6172139;28;20113;-67
2022/07/13 08:26:57;;;;;;;1.25;1.02;;;21.80;57.30;;;;;;6161648;28;20026;-67
2022/07/13 08:29:58;;;;;;;0.80;0.80;;;21.80;57.30;;;;;;6175035;28;20401;-67
2022/07/13 08:32:58;;;;;;;1.10;1.00;;;21.80;57.20;;;;;;6174973;28;20038;-67
2022/07/13 08:39:19;;;;;;;1.00;0.82;;;21.80;57.30;;;;;;6174821;28;20023;-68
2022/07/13 08:42:19;;;;;;;1.20;1.10;;;21.80;57.30;;;;;;6174896;28;20062;-67
2022/07/13 08:45:20;;;;;;;1.10;0.90;;;21.80;57.30;;;;;;6174752;28;20477;-67
2022/07/13 08:48:29;;;;;;;0.95;0.85;;;21.80;57.30;;;;;;6174427;28;20050;-67
2022/07/13 08:51:34;;;;;;;1.30;1.10;;;21.80;57.20;;;;;;6174467;28;20027;-67
2022/07/13 08:54:35;;;;;;;0.98;0.80;;;21.80;57.20;;;;;;6174398;28;20102;-66
2022/07/13 08:57:37;;;;;;;1.38;1.00;;;21.80;57.20;;;;;;6174313;28;20030;-67
2022/07/13 09:00:40;;;;;;;0.80;0.70;;;21.80;57.20;;;;;;6174170;28;20027;-67
2022/07/13 09:03:42;;;;;;;0.82;0.80;;;21.80;57.20;;;;;;6181154;28;20039;-68
2022/07/13 09:06:48;;;;;;;1.30;0.90;;;21.80;57.20;;;;;;6150264;28;20042;-67
2022/07/13 09:09:54;;;;;;;0.90;0.90;;;21.80;57.20;;;;;;6149958;29;20113;-67
2022/07/13 09:12:55;;;;;;;1.52;1.00;;;21.90;57.30;;;;;;6163145;28;20019;-68
2022/07/13 09:16:15;;;;;;;1.02;0.93;;;21.80;57.20;;;;;;6174248;28;20029;-68
2022/07/13 09:19:16;;;;;;;1.00;0.90;;;21.80;57.30;;;;;;6173767;28;20429;-67
2022/07/13 09:22:17;;;;;;;1.33;0.88;;;21.80;57.20;;;;;;6173896;28;20030;-67
2022/07/13 09:25:25;;;;;;;1.13;0.80;;;21.80;57.30;;;;;;6173657;28;20162;-67
2022/07/13 09:28:26;;;;;;;1.30;1.17;;;21.80;57.30;;;;;;6174263;28;20065;-67
2022/07/13 09:31:27;;;;;;;0.90;0.80;;;21.80;57.20;;;;;;6173330;28;20027;-67
2022/07/13 09:34:51;;;;;;;1.00;0.90;;;21.80;57.20;;;;;;6173546;28;20094;-68
2022/07/13 09:37:51;;;;;;;1.20;1.05;;;21.80;57.20;;;;;;6173766;28;20241;-68
2022/07/13 09:40:52;;;;;;;0.98;0.70;;;21.80;57.30;;;;;;6173201;28;20025;-67
2022/07/13 09:47:20;;;;;;;0.88;0.75;;;21.80;57.20;;;;;;6173996;28;20027;-68
2022/07/13 09:50:22;;;;;;;1.20;1.10;;;21.90;57.30;;;;;;6172836;28;20062;-67
2022/07/13 09:53:28;;;;;;;1.08;0.80;;;21.80;57.20;;;;;;6173337;28;20045;-67
2022/07/13 09:56:31;;;;;;;0.85;0.80;;;21.80;57.20;;;;;;6173678;28;20019;-67
2022/07/13 09:59:34;;;;;;;0.95;0.85;;;21.80;57.20;;;;;;6173086;28;20110;-67
2022/07/13 10:02:35;;;;;;;0.90;0.80;;;21.80;57.20;;;;;;6172771;28;20023;-68
2022/07/13 10:05:36;;;;;;;0.80;0.70;;;21.80;57.20;;;;;;6173408;28;20422;-68
2022/07/13 10:08:39;;;;;;;1.02;0.90;;;21.80;57.20;;;;;;6173364;28;20031;-67
2022/07/13 10:11:39;;;;;;;0.82;0.82;;;21.80;57.20;;;;;;6173458;28;20030;-67
2022/07/13 10:14:41;;;;;;;1.02;0.85;;;21.80;57.20;;;;;;6173280;28;20489;-67
2022/07/13 10:17:47;;;;;;;0.90;0.82;;;21.80;57.20;;;;;;6173098;28;20038;-68
2022/07/13 10:20:55;;;;;;;1.05;0.90;;;21.80;57.20;;;;;;6172884;28;20030;-67
2022/07/13 10:23:58;;;;;;;1.10;1.00;;;21.80;57.30;;;;;;6169885;28;20113;-67
2022/07/13 10:27:21;;;;;;;0.70;0.70;;;21.80;57.20;;;;;;6159741;28;20029;-68
2022/07/13 10:30:24;;;;;;;0.90;0.80;;;21.80;57.30;;;;;;6172496;28;20062;-68
2022/07/13 10:33:27;;;;;;;0.60;0.60;;;21.80;57.20;;;;;;6173106;28;20019;-66
2022/07/13 10:36:50;;;;;;;0.60;0.60;;;21.80;57.20;;;;;;6172860;28;20113;-66
2022/07/13 10:40:12;;;;;;;0.88;0.80;;;21.80;57.20;;;;;;6172501;28;20026;-67
2022/07/13 10:43:15;;;;;;;1.10;0.80;;;21.80;57.20;;;;;;6172640;28;20027;-67
2022/07/13 10:46:45;;;;;;;0.82;0.77;;;21.80;57.20;;;;;;6172023;28;20023;-67
2022/07/13 10:49:48;;;;;;;0.85;0.70;;;21.80;57.20;;;;;;6171610;28;20633;-67
2022/07/13 10:52:49;;;;;;;1.02;0.88;;;21.80;57.20;;;;;;6171683;28;20026;-67
2022/07/13 10:55:51;;;;;;;1.00;0.90;;;21.90;57.20;;;;;;6172372;28;20027;-67
2022/07/13 10:58:51;;;;;;;0.80;0.80;;;21.80;57.20;;;;;;6172786;28;20019;-67
2022/07/13 11:01:52;;;;;;;1.00;0.80;;;21.80;57.20;;;;;;6172734;28;20037;-68
2022/07/13 11:04:55;;;;;;;1.27;0.90;;;21.80;57.30;;;;;;6172866;28;20520;-67
2022/07/13 11:07:57;;;;;;;0.98;0.77;;;21.80;57.20;;;;;;6172356;28;20027;-67
2022/07/13 11:11:17;;;;;;;0.95;0.80;;;21.80;57.20;;;;;;6172921;28;20042;-68
2022/07/13 11:14:36;;;;;;;0.93;0.82;;;21.80;57.20;;;;;;6172100;28;20485;-67
2022/07/13 11:17:37;;;;;;;0.75;0.75;;;21.80;57.20;;;;;;6172133;28;20128;-67
2022/07/13 11:20:53;;;;;;;0.80;0.80;;;21.80;57.20;;;;;;6171988;28;20019;-68
2022/07/13 11:27:22;;;;;;;0.73;0.73;;;21.80;57.20;;;;;;6161392;28;20027;-68
2022/07/13 11:30:29;;;;;;;0.77;0.77;;;21.80;57.20;;;;;;6171622;28;20478;-67
2022/07/13 11:33:30;;;;;;;0.70;0.70;;;21.80;57.20;;;;;;6172173;28;20026;-67
2022/07/13 11:36:31;;;;;;;0.70;0.70;;;21.80;57.30;;;;;;6171747;28;20065;-68
2022/07/13 11:39:36;;;;;;;0.60;0.60;;;21.80;57.20;;;;;;6171350;28;20019;-67
2022/07/13 11:42:37;;;;;;;0.90;0.80;;;21.80;57.20;;;;;;6171874;28;20039;-67
2022/07/13 11:45:40;;;;;;;0.73;0.73;;;21.80;57.20;;;;;;6171761;28;20065;-67
2022/07/13 11:48:41;;;;;;;0.85;0.70;;;21.80;57.20;;;;;;6171671;28;20509;-68
2022/07/13 11:51:43;;;;;;;0.70;0.70;;;21.80;57.20;;;;;;6171630;28;20386;-67
2022/07/13 11:54:58;;;;;;;0.77;0.70;;;21.80;57.20;;;;;;6171772;28;20109;-67
2022/07/13 11:57:59;;;;;;;1.13;0.77;;;21.80;57.30;;;;;;6171595;28;20030;-68
2022/07/13 12:01:08;;;;;;;0.70;0.70;;;21.80;57.20;;;;;;6173943;28;20086;-67
2022/07/13 12:04:09;;;;;;;0.70;0.70;;;21.80;57.20;;;;;;6175888;28;20054;-67
2022/07/13 12:07:15;;;;;;;1.05;0.93;;;21.80;57.20;;;;;;6151712;28;20130;-67
2022/07/13 12:10:21;;;;;;;0.70;0.70;;;21.80;57.30;;;;;;6151772;29;20031;-67
2022/07/13 12:13:22;;;;;;;0.75;0.70;;;21.80;57.20;;;;;;6151299;28;20136;-68
2022/07/13 12:16:23;;;;;;;0.80;0.80;;;21.80;57.20;;;;;;6168095;28;20022;-67
2022/07/13 12:19:24;;;;;;;0.75;0.70;;;21.80;57.20;;;;;;6175548;28;20041;-67
2022/07/13 12:22:24;;;;;;;1.00;0.75;;;21.80;57.20;;;;;;6151356;28;20162;-67
2022/07/13 12:25:36;;;;;;;1.05;0.70;;;21.80;57.20;;;;;;6151716;29;20032;-68
2022/07/13 12:28:38;;;;;;;0.70;0.70;;;21.80;57.20;;;;;;6174849;28;20035;-67
2022/07/13 12:31:49;;;;;;;1.00;0.90;;;21.80;57.20;;;;;;6175148;28;20030;-67
2022/07/13 12:34:52;;;;;;;0.68;0.60;;;21.80;57.30;;;;;;6175148;28;20571;-67
2022/07/13 12:37:54;;;;;;;0.75;0.65;;;21.80;57.20;;;;;;6175120;28;20033;-67
2022/07/13 12:40:56;;;;;;;0.65;0.60;;;21.80;57.20;;;;;;6175081;28;20382;-67
2022/07/13 12:44:01;;;;;;;1.17;1.08;;;21.80;57.20;;;;;;6175170;28;20482;-66
2022/07/13 12:47:02;;;;;;;0.65;0.65;;;21.80;57.20;;;;;;6175003;28;20019;-67
2022/07/13 12:50:03;;;;;;;0.90;0.85;;;21.80;57.20;;;;;;6174772;28;20106;-67
2022/07/13 12:53:03;;;;;;;0.75;0.75;;;21.80;57.20;;;;;;6174950;28;20025;-67
2022/07/13 12:56:04;;;;;;;0.50;0.50;;;21.80;57.20;;;;;;6174675;28;20027;-67
2022/07/13 12:59:05;;;;;;;0.70;0.70;;;21.80;57.20;;;;;;6174642;28;20453;-67
2022/07/13 13:02:06;;;;;;;0.60;0.60;;;21.80;57.30;;;;;;6174435;28;20029;-67
2022/07/13 13:05:12;;;;;;;0.50;0.50;;;21.80;57.20;;;;;;6174942;28;20031;-67
2022/07/13 13:08:12;;;;;;;0.70;0.70;;;21.80;57.20;;;;;;6150346;29;20023;-67
2022/07/13 13:11:13;;;;;;;0.55;0.55;;;21.80;57.30;;;;;;6158060;28;20442;-67
2022/07/13 13:14:15;;;;;;;0.70;0.70;;;21.80;57.20;;;;;;6174186;28;20019;-67
2022/07/13 13:17:15;;;;;;;0.75;0.65;;;21.90;57.30;;;;;;6174329;28;20106;-67
2022/07/13 13:20:16;;;;;;;0.70;0.70;;;21.80;57.20;;;;;;6174437;28;20023;-66
2022/07/13 13:23:17;;;;;;;0.85;0.77;;;21.80;57.20;;;;;;6174107;28;20498;-68
2022/07/13 13:26:17;;;;;;;0.68;0.60;;;21.80;57.20;;;;;;6173680;28;20022;-67
2022/07/13 13:32:37;;;;;;;1.02;0.80;;;21.80;57.20;;;;;;6173736;28;20042;-68
2022/07/13 13:35:38;;;;;;;0.93;0.60;;;21.80;57.20;;;;;;6173846;28;20069;-67
2022/07/13 13:38:38;;;;;;;0.68;0.63;;;21.80;57.20;;;;;;6173363;28;20035;-67
2022/07/13 13:41:39;;;;;;;0.77;0.70;;;21.80;57.20;;;;;;6173848;28;20026;-67
2022/07/13 13:44:39;;;;;;;0.60;0.60;;;21.80;57.20;;;;;;6173340;28;20529;-68
2022/07/13 13:47:40;;;;;;;0.65;0.65;;;21.80;57.20;;;;;;6173409;28;20039;-67
2022/07/13 13:50:41;;;;;;;0.60;0.60;;;21.80;57.20;;;;;;6173301;28;20813;-67
2022/07/13 13:53:41;;;;;;;0.73;0.70;;;21.80;57.20;;;;;;6173330;28;20074;-67
2022/07/13 13:56:42;;;;;;;0.73;0.70;;;21.80;57.20;;;;;;6173210;28;20471;-67
2022/07/13 13:59:43;;;;;;;0.68;0.68;;;21.90;57.20;;;;;;6173027;28;20110;-67
2022/07/13 14:02:43;;;;;;;0.60;0.60;;;21.80;57.20;;;;;;6173018;28;20031;-67
2022/07/13 14:05:44;;;;;;;0.60;0.60;;;21.80;57.20;;;;;;6173343;28;20496;-67
2022/07/13 14:08:45;;;;;;;0.68;0.68;;;21.80;57.20;;;;;;6172823;28;20027;-68
2022/07/13 14:11:46;;;;;;;0.75;0.70;;;21.90;57.30;;;;;;6173157;28;20050;-68
2022/07/13 14:14:47;;;;;;;1.45;0.90;;;21.80;57.20;;;;;;6172861;28;20030;-68
2022/07/13 14:17:48;;;;;;;0.50;0.50;;;21.80;57.20;;;;;;6172976;28;20035;-67
2022/07/13 14:20:48;;;;;;;0.70;0.70;;;21.80;57.20;;;;;;6173018;28;20116;-67
2022/07/13 14:23:49;;;;;;;0.73;0.70;;;21.80;57.20;;;;;;6172331;28;20086;-67
2022/07/13 14:26:51;;;;;;;0.68;0.68;;;21.80;57.30;;;;;;6172846;28;20397;-67
2022/07/13 14:29:53;;;;;;;0.60;0.60;;;21.80;57.20;;;;;;6160145;28;20034;-67
2022/07/13 14:32:54;;;;;;;0.75;0.73;;;21.80;57.20;;;;;;6167576;28;20277;-68
2022/07/13 14:35:54;;;;;;;1.10;0.90;;;21.90;57.30;;;;;;6167818;28;20030;-67
2022/07/13 14:38:55;;;;;;;0.70;0.63;;;21.80;57.20;;;;;;6170817;28;20125;-67
2022/07/13 14:41:56;;;;;;;0.52;0.52;;;21.80;57.20;;;;;;6170693;28;20497;-68
2022/07/13 14:44:56;;;;;;;0.70;0.70;;;21.80;57.20;;;;;;6163174;28;20038;-67
2022/07/13 14:47:57;;;;;;;0.68;0.60;;;21.80;57.20;;;;;;6170550;28;20037;-68
2022/07/13 14:50:58;;;;;;;0.90;0.80;;;21.80;57.20;;;;;;6171203;28;20047;-67
2022/07/13 14:54:04;;;;;;;0.60;0.50;;;21.80;57.20;;;;;;6170454;28;20440;-68
2022/07/13 14:57:05;;;;;;;0.68;0.68;;;21.80;57.20;;;;;;6171156;28;20031;-67
2022/07/13 15:00:07;;;;;;;0.55;0.55;;;21.80;57.20;;;;;;6170319;28;20031;-67
2022/07/13 15:03:08;;;;;;;0.63;0.60;;;21.80;57.20;;;;;;6171438;28;20295;-67
2022/07/13 15:06:08;;;;;;;0.60;0.60;;;21.80;57.20;;;;;;6170837;28;20074;-68
2022/07/13 15:09:14;;;;;;;0.60;0.60;;;21.80;57.20;;;;;;6170540;28;20502;-67
2022/07/13 15:12:15;;;;;;;0.50;0.50;;;21.80;57.20;;;;;;6170944;28;20026;-67
2022/07/13 15:15:15;;;;;;;0.95;0.85;;;21.80;57.20;;;;;;6170299;28;20023;-66
2022/07/13 15:18:17;;;;;;;0.60;0.60;;;21.80;57.20;;;;;;6170930;28;20022;-68
2022/07/13 15:21:19;;;;;;;1.52;0.63;;;21.80;57.20;;;;;;6169099;28;20035;-67
2022/07/13 15:24:19;;;;;;;0.75;0.70;;;21.80;57.30;;;;;;6163858;28;20046;-66
2022/07/13 15:27:20;;;;;;;1.20;0.70;;;21.80;57.30;;;;;;6145689;29;20020;-68
2022/07/13 15:30:20;;;;;;;0.60;0.60;;;21.80;57.80;;;;;;6168611;28;20481;-66
2022/07/13 15:33:21;;;;;;;1.02;0.68;;;21.80;57.20;;;;;;6170504;28;20019;-67
2022/07/13 15:36:22;;;;;;;0.45;0.45;;;21.80;57.20;;;;;;6174857;28;20026;-68
2022/07/13 15:39:22;;;;;;;0.85;0.80;;;21.80;57.20;;;;;;6173765;28;20082;-67
2022/07/13 15:42:23;;;;;;;0.80;0.70;;;21.90;57.30;;;;;;6173315;28;20027;-67
2022/07/13 15:45:24;;;;;;;0.80;0.80;;;21.80;57.20;;;;;;6175118;28;20027;-67
2022/07/13 15:48:24;;;;;;;0.70;0.60;;;21.80;57.20;;;;;;6174755;28;20050;-67
2022/07/13 15:51:26;;;;;;;0.60;0.60;;;21.80;57.30;;;;;;6174673;28;20027;-68
2022/07/13 15:54:28;;;;;;;0.70;0.70;;;21.80;57.20;;;;;;6174311;28;20015;-67
2022/07/13 15:57:28;;;;;;;0.60;0.55;;;21.80;57.20;;;;;;6175052;28;20031;-67
2022/07/13 16:00:29;;;;;;;0.52;0.52;;;21.80;57.20;;;;;;6174039;28;20544;-67